Time;durP1;ratioP1;P1;durP2;ratioP2;P2;SDS_P1;SDS_P2;PMS_P1;PMS_P2;Temp;Humidity;BMP_temperature;BMP_pressure;BME280_temperature;BME280_humidity;BME280_pressure;Samples;Min_cycle;Max_cycle;Signal;HPM_P1;HPM_P2
2021/05/13 00:02:07;;;;;;;16.07;10.60;;;;;;;;;;4958537;29;20650;-83
2021/05/13 00:05:12;;;;;;;15.73;10.70;;;;;;;;;;4958258;29;20216;-84
2021/05/13 00:08:16;;;;;;;13.43;9.87;;;;;;;;;;4956305;29;20242;-84
2021/05/13 00:11:27;;;;;;;13.43;9.93;;;;;;;;;;4952774;29;20203;-84
2021/05/13 00:14:31;;;;;;;14.00;10.00;;;;;;;;;;4951232;28;20191;-83
2021/05/13 00:17:36;;;;;;;13.00;9.93;;;;;;;;;;4957288;28;20222;-83
2021/05/13 00:20:43;;;;;;;13.90;10.60;;;;;;;;;;4943353;28;20529;-83
2021/05/13 00:23:47;;;;;;;13.40;10.53;;;;;;;;;;4954108;29;20214;-83
2021/05/13 00:26:58;;;;;;;13.53;9.97;;;;;;;;;;4965041;28;20241;-83
2021/05/13 00:30:05;;;;;;;12.07;9.83;;;;;;;;;;4961963;28;20187;-83
2021/05/13 00:33:10;;;;;;;11.77;9.70;;;;;;;;;;4950572;28;20190;-84
2021/05/13 00:36:14;;;;;;;11.20;9.40;;;;;;;;;;4962863;28;20198;-83
2021/05/13 00:39:18;;;;;;;13.80;10.17;;;;;;;;;;4951963;28;20190;-83
2021/05/13 00:42:23;;;;;;;12.33;10.00;;;;;;;;;;4973627;28;20179;-84
2021/05/13 00:45:28;;;;;;;14.40;9.77;;;;;;;;;;4971211;29;20325;-84
2021/05/13 00:48:35;;;;;;;13.63;9.87;;;;;;;;;;4959118;28;20191;-84
2021/05/13 00:51:39;;;;;;;13.23;10.07;;;;;;;;;;4942661;29;20184;-83
2021/05/13 00:54:44;;;;;;;12.63;9.87;;;;;;;;;;4942916;28;20204;-83
2021/05/13 00:57:53;;;;;;;15.10;10.23;;;;;;;;;;4954842;28;20227;-83
2021/05/13 01:04:01;;;;;;;12.60;10.57;;;;;;;;;;4953916;28;20215;-84
2021/05/13 01:07:06;;;;;;;14.00;10.10;;;;;;;;;;4972259;28;20234;-83
2021/05/13 01:10:10;;;;;;;12.13;9.70;;;;;;;;;;4960957;28;20205;-83
2021/05/13 01:13:20;;;;;;;15.93;10.20;;;;;;;;;;4958927;28;20187;-83
2021/05/13 01:16:35;;;;;;;12.37;9.17;;;;;;;;;;4952685;29;20227;-83
2021/05/13 01:19:42;;;;;;;11.37;9.20;;;;;;;;;;4967515;28;20191;-83
2021/05/13 01:22:47;;;;;;;12.37;9.40;;;;;;;;;;4961134;28;20183;-83
2021/05/13 01:25:54;;;;;;;10.83;9.07;;;;;;;;;;4944143;28;20682;-83
2021/05/13 01:28:59;;;;;;;14.77;9.50;;;;;;;;;;4963799;28;20207;-83
2021/05/13 01:32:04;;;;;;;14.13;9.30;;;;;;;;;;4960872;28;20179;-84
2021/05/13 01:35:10;;;;;;;14.20;9.67;;;;;;;;;;4952295;29;20176;-83
2021/05/13 01:38:20;;;;;;;12.27;8.77;;;;;;;;;;4952479;28;20215;-83
2021/05/13 01:41:24;;;;;;;14.47;8.70;;;;;;;;;;4953706;28;20207;-83
2021/05/13 01:44:28;;;;;;;11.67;9.13;;;;;;;;;;4960546;28;20215;-83
2021/05/13 01:47:36;;;;;;;11.80;9.07;;;;;;;;;;4970076;28;20222;-83
2021/05/13 01:50:40;;;;;;;12.43;9.53;;;;;;;;;;4941111;29;20471;-83
2021/05/13 01:53:44;;;;;;;12.57;8.93;;;;;;;;;;4940891;29;20528;-83
2021/05/13 01:56:49;;;;;;;12.93;9.63;;;;;;;;;;4967440;28;20218;-83
2021/05/13 01:59:53;;;;;;;13.17;9.33;;;;;;;;;;4952965;28;20194;-83
2021/05/13 02:03:03;;;;;;;15.60;10.47;;;;;;;;;;4950729;28;20539;-83
2021/05/13 02:06:08;;;;;;;17.87;11.40;;;;;;;;;;4956230;28;20215;-84
2021/05/13 02:09:12;;;;;;;15.73;12.40;;;;;;;;;;4944736;29;20191;-84
2021/05/13 02:12:17;;;;;;;18.53;13.53;;;;;;;;;;4942865;29;20206;-84
2021/05/13 02:15:20;;;;;;;18.67;12.90;;;;;;;;;;4949481;28;20585;-84
2021/05/13 02:18:25;;;;;;;19.63;13.17;;;;;;;;;;4963224;28;20222;-84
2021/05/13 02:21:29;;;;;;;16.30;13.07;;;;;;;;;;4952103;29;20195;-84
2021/05/13 02:24:34;;;;;;;19.77;13.10;;;;;;;;;;4955920;29;20219;-85
2021/05/13 02:27:38;;;;;;;20.37;13.00;;;;;;;;;;4967524;28;20608;-84
2021/05/13 02:30:43;;;;;;;18.80;13.83;;;;;;;;;;4938517;28;20202;-84
2021/05/13 02:33:49;;;;;;;20.60;13.47;;;;;;;;;;4974603;28;20191;-84
2021/05/13 02:36:53;;;;;;;19.63;14.57;;;;;;;;;;4974746;28;20210;-84
2021/05/13 02:39:58;;;;;;;18.60;14.40;;;;;;;;;;4974850;28;20174;-84
2021/05/13 02:43:04;;;;;;;19.17;13.30;;;;;;;;;;4958523;28;20189;-84
2021/05/13 02:46:08;;;;;;;22.17;14.33;;;;;;;;;;4963388;28;20716;-84
2021/05/13 02:49:12;;;;;;;22.13;14.73;;;;;;;;;;4954467;28;20190;-84
2021/05/13 02:52:17;;;;;;;21.33;14.20;;;;;;;;;;4960834;28;20194;-84
2021/05/13 02:55:21;;;;;;;18.77;14.40;;;;;;;;;;4974627;28;20183;-84
2021/05/13 02:58:25;;;;;;;20.73;14.90;;;;;;;;;;4951619;28;20229;-85
2021/05/13 03:01:30;;;;;;;19.93;14.10;;;;;;;;;;4973416;28;20586;-85
2021/05/13 03:04:34;;;;;;;18.47;13.17;;;;;;;;;;4963032;28;20189;-84
2021/05/13 03:07:44;;;;;;;22.30;15.13;;;;;;;;;;4944624;29;20229;-84
2021/05/13 03:10:48;;;;;;;17.73;14.57;;;;;;;;;;4944675;28;20554;-84
2021/05/13 03:13:55;;;;;;;22.00;14.90;;;;;;;;;;4947910;29;20550;-84
2021/05/13 03:17:00;;;;;;;23.80;15.60;;;;;;;;;;4957457;29;20218;-84
2021/05/13 03:20:05;;;;;;;21.43;15.73;;;;;;;;;;4947396;29;20202;-84
2021/05/13 03:23:11;;;;;;;26.43;16.93;;;;;;;;;;4978046;28;20189;-84
2021/05/13 03:26:17;;;;;;;24.63;17.33;;;;;;;;;;4976772;28;20592;-84
2021/05/13 03:29:21;;;;;;;30.43;19.03;;;;;;;;;;4966705;28;20205;-84
2021/05/13 03:32:25;;;;;;;25.17;19.33;;;;;;;;;;4966437;28;20187;-84
2021/05/13 03:35:30;;;;;;;26.60;18.50;;;;;;;;;;4961235;28;20187;-84
2021/05/13 03:38:34;;;;;;;26.97;18.10;;;;;;;;;;4947485;29;20191;-84
2021/05/13 03:41:39;;;;;;;28.73;19.50;;;;;;;;;;4971540;28;20762;-84
2021/05/13 03:44:44;;;;;;;26.93;18.40;;;;;;;;;;4978262;28;20190;-84
2021/05/13 03:47:48;;;;;;;30.17;20.03;;;;;;;;;;4957885;29;20231;-84
2021/05/13 03:50:52;;;;;;;32.37;20.43;;;;;;;;;;4963940;28;20190;-84
2021/05/13 03:53:56;;;;;;;30.73;21.03;;;;;;;;;;4976802;28;20692;-84
2021/05/13 03:57:02;;;;;;;31.50;21.10;;;;;;;;;;4965982;28;20245;-84
2021/05/13 04:00:13;;;;;;;25.83;19.70;;;;;;;;;;4973102;28;20218;-84
2021/05/13 04:03:18;;;;;;;30.53;19.90;;;;;;;;;;4936006;29;20527;-85
2021/05/13 04:06:22;;;;;;;31.77;21.40;;;;;;;;;;4955373;28;20740;-85
2021/05/13 04:09:26;;;;;;;31.77;21.50;;;;;;;;;;4956394;29;20193;-84
2021/05/13 04:12:30;;;;;;;32.50;21.07;;;;;;;;;;4957976;29;20187;-84
2021/05/13 04:15:34;;;;;;;31.50;20.70;;;;;;;;;;4953516;28;20182;-84
2021/05/13 04:18:38;;;;;;;29.13;19.73;;;;;;;;;;4956449;29;20210;-84
2021/05/13 04:21:44;;;;;;;28.37;18.77;;;;;;;;;;4951358;28;20221;-84
2021/05/13 04:24:48;;;;;;;29.20;20.03;;;;;;;;;;4976404;28;20192;-84
2021/05/13 04:27:52;;;;;;;30.77;19.47;;;;;;;;;;4996722;23;20240;-86
2021/05/13 04:30:56;;;;;;;33.50;20.70;;;;;;;;;;4982939;28;20683;-86
2021/05/13 04:34:00;;;;;;;28.70;21.37;;;;;;;;;;5004509;28;20181;-86
2021/05/13 04:37:04;;;;;;;30.77;21.77;;;;;;;;;;4982362;28;20240;-86
2021/05/13 04:40:09;;;;;;;32.37;22.33;;;;;;;;;;4981941;28;20192;-86
2021/05/13 04:43:13;;;;;;;36.13;23.63;;;;;;;;;;4992998;28;20200;-85
2021/05/13 04:46:18;;;;;;;30.63;21.83;;;;;;;;;;4976452;28;20216;-85
2021/05/13 04:49:23;;;;;;;33.23;22.47;;;;;;;;;;4993027;28;20204;-85
2021/05/13 04:52:27;;;;;;;31.10;22.13;;;;;;;;;;4984113;28;20200;-85
2021/05/13 04:55:31;;;;;;;31.30;22.20;;;;;;;;;;4993110;28;20189;-85
2021/05/13 04:58:35;;;;;;;31.87;21.70;;;;;;;;;;4981878;28;20223;-85
2021/05/13 05:01:39;;;;;;;27.17;19.67;;;;;;;;;;4981470;28;20196;-86
2021/05/13 05:04:44;;;;;;;25.57;19.07;;;;;;;;;;4992915;28;20178;-85
2021/05/13 05:07:48;;;;;;;28.80;20.37;;;;;;;;;;4972193;28;20220;-86
2021/05/13 05:10:52;;;;;;;29.67;19.87;;;;;;;;;;4992577;28;20208;-85
2021/05/13 05:13:56;;;;;;;31.40;22.17;;;;;;;;;;4991784;28;20216;-85
2021/05/13 05:17:00;;;;;;;29.97;21.80;;;;;;;;;;4976726;28;20186;-86
2021/05/13 05:20:05;;;;;;;32.07;20.90;;;;;;;;;;4973134;28;20656;-85
2021/05/13 05:23:10;;;;;;;30.47;20.37;;;;;;;;;;4985178;28;20193;-85
2021/05/13 05:26:14;;;;;;;31.57;19.47;;;;;;;;;;5001207;28;20216;-85
2021/05/13 05:29:18;;;;;;;25.60;18.67;;;;;;;;;;4992047;28;20201;-86
2021/05/13 05:32:23;;;;;;;26.00;18.57;;;;;;;;;;4980938;28;20194;-85
2021/05/13 05:35:27;;;;;;;22.87;17.40;;;;;;;;;;4971596;28;20201;-86
2021/05/13 05:38:31;;;;;;;24.83;18.83;;;;;;;;;;4994953;28;20224;-85
2021/05/13 05:41:35;;;;;;;31.50;25.00;;;;;;;;;;4982752;28;20218;-84
2021/05/13 05:44:40;;;;;;;23.90;18.97;;;;;;;;;;5002533;28;20189;-86
2021/05/13 05:47:44;;;;;;;25.87;16.73;;;;;;;;;;4991296;28;20240;-86
2021/05/13 05:50:49;;;;;;;23.20;16.43;;;;;;;;;;5002851;28;20188;-85
2021/05/13 05:53:53;;;;;;;22.60;16.10;;;;;;;;;;5001954;28;20200;-83
2021/05/13 05:56:57;;;;;;;19.40;15.70;;;;;;;;;;5002765;28;20189;-84
2021/05/13 06:00:02;;;;;;;22.77;15.37;;;;;;;;;;5002668;28;20212;-84
2021/05/13 06:03:07;;;;;;;17.83;15.03;;;;;;;;;;4974816;28;20678;-84
2021/05/13 06:06:11;;;;;;;24.83;15.23;;;;;;;;;;4991618;28;20212;-85
2021/05/13 06:09:15;;;;;;;20.03;14.30;;;;;;;;;;4991919;28;20188;-85
2021/05/13 06:12:19;;;;;;;20.33;14.20;;;;;;;;;;4991467;28;20230;-84
2021/05/13 06:15:25;;;;;;;18.27;14.73;;;;;;;;;;5002516;28;20208;-84
2021/05/13 06:18:29;;;;;;;16.43;13.77;;;;;;;;;;4991048;28;20225;-85
2021/05/13 06:21:38;;;;;;;15.97;14.27;;;;;;;;;;5002539;28;20208;-85
2021/05/13 06:24:45;;;;;;;15.20;12.23;;;;;;;;;;4991160;28;20192;-85
2021/05/13 06:27:49;;;;;;;15.87;12.77;;;;;;;;;;5002475;28;20603;-85
2021/05/13 06:30:53;;;;;;;17.17;13.20;;;;;;;;;;4991306;28;20193;-84
2021/05/13 06:33:57;;;;;;;17.10;12.53;;;;;;;;;;4974446;28;20192;-85
2021/05/13 06:37:03;;;;;;;15.10;12.73;;;;;;;;;;4982522;28;20549;-85
2021/05/13 06:40:09;;;;;;;16.57;13.37;;;;;;;;;;4982703;28;20209;-85
2021/05/13 06:43:13;;;;;;;14.10;11.87;;;;;;;;;;4971697;28;20250;-85
2021/05/13 06:46:21;;;;;;;16.20;12.47;;;;;;;;;;4990816;28;20576;-85
2021/05/13 06:49:26;;;;;;;13.97;10.67;;;;;;;;;;5001492;28;20196;-85
2021/05/13 06:52:30;;;;;;;14.07;10.80;;;;;;;;;;4979783;28;20192;-85
2021/05/13 06:55:34;;;;;;;12.97;10.90;;;;;;;;;;4971200;28;20185;-85
2021/05/13 06:58:38;;;;;;;12.37;9.73;;;;;;;;;;4976088;28;20718;-85
2021/05/13 07:01:42;;;;;;;12.57;9.57;;;;;;;;;;5001830;28;20204;-85
2021/05/13 07:04:46;;;;;;;12.73;9.93;;;;;;;;;;4990709;28;20193;-85
2021/05/13 07:07:50;;;;;;;12.33;8.80;;;;;;;;;;4990969;28;20710;-85
2021/05/13 07:10:55;;;;;;;12.10;8.23;;;;;;;;;;5001816;28;20188;-85
2021/05/13 07:13:59;;;;;;;10.10;7.37;;;;;;;;;;5012640;28;20570;-85
2021/05/13 07:17:03;;;;;;;8.93;7.93;;;;;;;;;;4990362;28;20221;-85
2021/05/13 07:20:08;;;;;;;9.30;7.10;;;;;;;;;;5002044;28;20182;-85
2021/05/13 07:23:13;;;;;;;11.07;6.70;;;;;;;;;;4979855;28;20186;-86
2021/05/13 07:26:17;;;;;;;10.93;5.87;;;;;;;;;;4990686;28;20210;-85
2021/05/13 07:29:21;;;;;;;9.00;6.30;;;;;;;;;;4981986;28;20193;-85
2021/05/13 07:32:25;;;;;;;7.40;4.93;;;;;;;;;;4994194;28;20198;-85
2021/05/13 07:35:30;;;;;;;6.60;5.30;;;;;;;;;;4994027;28;20205;-85
2021/05/13 07:38:35;;;;;;;8.97;5.23;;;;;;;;;;4990389;28;20217;-85
2021/05/13 07:41:39;;;;;;;10.50;5.80;;;;;;;;;;4989654;28;20177;-85
2021/05/13 07:44:43;;;;;;;7.60;5.47;;;;;;;;;;4972007;28;20203;-86
2021/05/13 07:47:48;;;;;;;6.20;4.50;;;;;;;;;;4971795;28;20570;-85
2021/05/13 07:50:52;;;;;;;8.83;4.97;;;;;;;;;;4971188;28;20191;-85
2021/05/13 07:53:56;;;;;;;5.77;4.23;;;;;;;;;;4994559;28;20197;-85
2021/05/13 07:57:00;;;;;;;5.20;4.40;;;;;;;;;;4982084;28;20182;-85
2021/05/13 08:00:08;;;;;;;9.87;5.37;;;;;;;;;;4985934;28;20178;-85
2021/05/13 08:03:18;;;;;;;7.97;5.10;;;;;;;;;;4990615;28;20193;-85
2021/05/13 08:06:22;;;;;;;10.33;5.57;;;;;;;;;;4996398;28;20190;-86
2021/05/13 08:09:26;;;;;;;8.20;4.90;;;;;;;;;;4974379;28;20182;-86
2021/05/13 08:12:30;;;;;;;6.80;5.53;;;;;;;;;;4981011;28;20651;-86
2021/05/13 08:15:34;;;;;;;7.93;5.37;;;;;;;;;;4982313;28;20182;-86
2021/05/13 08:18:38;;;;;;;7.47;4.80;;;;;;;;;;5005056;28;20213;-86
2021/05/13 08:21:43;;;;;;;5.20;4.60;;;;;;;;;;5004299;28;20537;-85
2021/05/13 08:24:47;;;;;;;14.80;13.07;;;;;;;;;;5001626;28;20182;-85
2021/05/13 08:27:51;;;;;;;18.57;13.27;;;;;;;;;;4999213;28;20244;-85
2021/05/13 08:30:55;;;;;;;7.60;6.00;;;;;;;;;;5000465;28;20208;-85
2021/05/13 08:33:59;;;;;;;7.40;6.00;;;;;;;;;;5000482;28;20182;-85
2021/05/13 08:37:04;;;;;;;6.73;5.00;;;;;;;;;;4989522;28;20724;-85
2021/05/13 08:40:10;;;;;;;5.93;4.57;;;;;;;;;;4981028;28;20186;-87
2021/05/13 08:43:24;;;;;;;5.63;4.83;;;;;;;;;;5000829;28;20194;-85
2021/05/13 08:46:28;;;;;;;9.03;4.33;;;;;;;;;;5000364;28;20201;-85
2021/05/13 08:49:32;;;;;;;6.03;4.20;;;;;;;;;;4982109;28;20202;-85
2021/05/13 08:52:37;;;;;;;7.20;4.07;;;;;;;;;;4974159;28;20197;-85
2021/05/13 08:55:41;;;;;;;4.77;3.97;;;;;;;;;;4989405;28;20177;-85
2021/05/13 08:58:45;;;;;;;6.20;3.90;;;;;;;;;;5000315;28;20216;-85
2021/05/13 09:01:58;;;;;;;5.77;3.87;;;;;;;;;;4991555;28;20190;-85
2021/05/13 09:05:02;;;;;;;9.50;4.40;;;;;;;;;;4971556;28;20178;-85
2021/05/13 09:08:06;;;;;;;7.33;4.03;;;;;;;;;;4977911;28;20700;-85
2021/05/13 09:11:12;;;;;;;5.83;3.93;;;;;;;;;;4999605;28;20198;-85
2021/05/13 09:14:24;;;;;;;4.60;3.73;;;;;;;;;;4977725;28;20189;-85
2021/05/13 09:17:29;;;;;;;6.10;3.90;;;;;;;;;;4977919;28;20225;-85
2021/05/13 09:20:39;;;;;;;6.23;4.20;;;;;;;;;;5000069;28;20189;-85
2021/05/13 09:23:43;;;;;;;6.27;3.90;;;;;;;;;;5011230;28;20202;-85
2021/05/13 09:26:47;;;;;;;4.97;4.00;;;;;;;;;;4999011;28;20186;-85
2021/05/13 09:30:14;;;;;;;6.37;4.60;;;;;;;;;;4999997;28;20526;-85
2021/05/13 09:33:27;;;;;;;5.87;4.50;;;;;;;;;;4988549;28;20190;-86
2021/05/13 09:36:32;;;;;;;8.40;4.40;;;;;;;;;;4982178;28;20197;-85
2021/05/13 09:39:35;;;;;;;5.40;3.90;;;;;;;;;;4976211;28;20537;-86
2021/05/13 09:42:40;;;;;;;5.17;4.20;;;;;;;;;;4988421;28;20185;-85
2021/05/13 09:45:46;;;;;;;4.47;3.33;;;;;;;;;;4976464;28;20189;-85
2021/05/13 09:48:52;;;;;;;4.60;3.73;;;;;;;;;;4993076;28;20225;-86
2021/05/13 09:51:56;;;;;;;5.13;4.57;;;;;;;;;;4984912;28;20657;-85
2021/05/13 09:55:19;;;;;;;6.67;4.50;;;;;;;;;;4977063;28;20190;-86
2021/05/13 09:58:24;;;;;;;6.00;4.10;;;;;;;;;;4999019;28;20214;-86
2021/05/13 10:01:37;;;;;;;5.70;3.97;;;;;;;;;;4987178;28;20193;-86
2021/05/13 10:04:42;;;;;;;6.33;4.27;;;;;;;;;;4987126;28;20193;-85
2021/05/13 10:07:46;;;;;;;5.67;4.70;;;;;;;;;;4998064;28;20221;-86
2021/05/13 10:10:51;;;;;;;7.33;4.97;;;;;;;;;;4998825;28;20189;-85
2021/05/13 10:13:56;;;;;;;6.17;4.23;;;;;;;;;;4970626;28;20190;-85
2021/05/13 10:17:03;;;;;;;5.70;4.10;;;;;;;;;;4967738;28;20178;-85
2021/05/13 10:20:09;;;;;;;7.63;4.70;;;;;;;;;;4980317;28;20201;-85
2021/05/13 10:23:14;;;;;;;4.90;3.97;;;;;;;;;;4986833;28;20194;-87
2021/05/13 10:26:35;;;;;;;7.33;3.93;;;;;;;;;;4996717;28;20190;-86
2021/05/13 10:29:41;;;;;;;6.17;4.20;;;;;;;;;;4969331;28;20186;-86
2021/05/13 10:33:05;;;;;;;4.33;3.90;;;;;;;;;;4980807;28;20193;-86
2021/05/13 10:36:14;;;;;;;5.87;4.57;;;;;;;;;;4979805;28;20668;-86
2021/05/13 10:39:18;;;;;;;6.07;4.30;;;;;;;;;;4979671;28;20531;-86
2021/05/13 10:42:31;;;;;;;4.97;3.77;;;;;;;;;;4968891;28;20202;-85
2021/05/13 10:45:37;;;;;;;9.70;4.20;;;;;;;;;;4989977;28;20534;-86
2021/05/13 10:48:43;;;;;;;6.40;3.97;;;;;;;;;;4967682;28;20221;-86
2021/05/13 10:51:49;;;;;;;5.77;3.43;;;;;;;;;;4980020;28;20661;-86
2021/05/13 10:54:53;;;;;;;5.07;4.17;;;;;;;;;;4998096;28;20186;-86
2021/05/13 10:57:58;;;;;;;5.33;3.83;;;;;;;;;;4978809;28;20221;-86
2021/05/13 11:01:48;;;;;;;7.53;4.70;;;;;;;;;;4981386;28;20193;-85
2021/05/13 11:04:52;;;;;;;5.20;4.23;;;;;;;;;;4986782;28;20201;-85
2021/05/13 11:08:23;;;;;;;10.87;6.07;;;;;;;;;;4978730;28;20578;-85
2021/05/13 11:11:28;;;;;;;7.00;4.43;;;;;;;;;;4980333;28;20268;-85
2021/05/13 11:14:32;;;;;;;6.40;5.17;;;;;;;;;;4986840;28;20177;-85
2021/05/13 11:20:57;;;;;;;6.17;4.80;;;;;;;;;;4997745;28;20185;-86
2021/05/13 11:24:01;;;;;;;6.63;5.40;;;;;;;;;;4986703;28;20189;-86
2021/05/13 11:27:08;;;;;;;7.77;5.50;;;;;;;;;;4968529;28;20233;-86
2021/05/13 11:30:13;;;;;;;7.20;5.60;;;;;;;;;;4997615;28;20653;-86
2021/05/13 11:33:18;;;;;;;7.53;5.77;;;;;;;;;;4988311;28;20181;-85
2021/05/13 11:36:29;;;;;;;6.90;6.13;;;;;;;;;;4978637;28;20193;-86
2021/05/13 11:39:34;;;;;;;6.93;6.13;;;;;;;;;;4989936;28;20637;-86
2021/05/13 11:42:38;;;;;;;7.63;5.90;;;;;;;;;;4993439;28;20198;-86
2021/05/13 11:45:43;;;;;;;6.70;5.73;;;;;;;;;;4972218;28;20198;-86
2021/05/13 11:48:48;;;;;;;5.27;3.90;;;;;;;;;;4981928;28;20577;-86
2021/05/13 11:51:52;;;;;;;4.07;3.30;;;;;;;;;;4982092;28;20186;-86
2021/05/13 11:54:56;;;;;;;7.43;3.60;;;;;;;;;;5001157;28;20201;-85
2021/05/13 11:58:01;;;;;;;5.43;4.00;;;;;;;;;;4989949;28;20213;-85
2021/05/13 12:01:15;;;;;;;4.23;3.70;;;;;;;;;;4976701;28;20189;-85
2021/05/13 12:04:22;;;;;;;6.23;3.60;;;;;;;;;;4974406;28;20198;-86
2021/05/13 12:07:29;;;;;;;5.70;3.43;;;;;;;;;;4970294;28;20217;-86
2021/05/13 12:10:33;;;;;;;5.57;3.50;;;;;;;;;;4992620;28;20657;-85
2021/05/13 12:13:37;;;;;;;4.57;3.77;;;;;;;;;;4971324;28;20194;-85
2021/05/13 12:16:42;;;;;;;6.70;3.30;;;;;;;;;;4977305;28;20620;-86
2021/05/13 12:19:46;;;;;;;4.60;3.60;;;;;;;;;;4985364;28;20193;-85
2021/05/13 12:22:50;;;;;;;4.63;3.40;;;;;;;;;;4959476;28;20197;-86
2021/05/13 12:25:55;;;;;;;8.10;5.77;;;;;;;;;;4980447;28;20197;-87
2021/05/13 12:29:14;;;;;;;6.93;4.87;;;;;;;;;;4990076;28;20573;-85
2021/05/13 12:32:32;;;;;;;5.63;3.70;;;;;;;;;;4993100;28;20210;-86
2021/05/13 12:35:37;;;;;;;8.83;5.37;;;;;;;;;;4982802;28;20205;-86
2021/05/13 12:38:45;;;;;;;13.90;10.07;;;;;;;;;;4989553;28;20209;-86
2021/05/13 12:41:49;;;;;;;5.63;4.43;;;;;;;;;;4989602;28;20576;-86
2021/05/13 12:45:18;;;;;;;6.87;3.70;;;;;;;;;;4988835;28;20193;-85
2021/05/13 12:48:24;;;;;;;4.17;2.83;;;;;;;;;;5000087;28;20216;-85
2021/05/13 12:51:28;;;;;;;4.30;2.77;;;;;;;;;;4988396;28;20661;-86
2021/05/13 12:54:36;;;;;;;8.13;2.73;;;;;;;;;;4988543;28;20185;-85
2021/05/13 12:57:46;;;;;;;3.80;2.60;;;;;;;;;;4989145;28;20612;-85
2021/05/13 13:00:56;;;;;;;5.13;2.90;;;;;;;;;;4980476;28;20205;-85
2021/05/13 13:04:03;;;;;;;2.83;2.10;;;;;;;;;;4981126;28;20194;-86
2021/05/13 13:07:07;;;;;;;3.20;1.90;;;;;;;;;;5004787;28;20221;-82
2021/05/13 13:10:22;;;;;;;2.33;2.10;;;;;;;;;;5012028;28;20201;-82
2021/05/13 13:13:37;;;;;;;4.97;3.57;;;;;;;;;;4988622;28;20186;-81
2021/05/13 13:16:41;;;;;;;6.23;4.80;;;;;;;;;;4983924;28;20193;-81
2021/05/13 13:20:07;;;;;;;4.27;2.87;;;;;;;;;;5011873;28;20178;-82
2021/05/13 13:23:27;;;;;;;3.97;2.73;;;;;;;;;;4999583;28;20186;-81
2021/05/13 13:26:32;;;;;;;4.00;2.50;;;;;;;;;;4988217;28;20182;-81
2021/05/13 13:29:37;;;;;;;3.47;2.20;;;;;;;;;;5011599;28;20205;-81
2021/05/13 13:32:42;;;;;;;4.03;2.60;;;;;;;;;;5001075;28;20182;-82
2021/05/13 13:35:49;;;;;;;3.37;2.07;;;;;;;;;;5013935;28;20689;-82
2021/05/13 13:38:53;;;;;;;4.63;2.27;;;;;;;;;;4995463;28;20218;-82
2021/05/13 13:41:58;;;;;;;2.87;2.20;;;;;;;;;;5004005;28;20193;-82
2021/05/13 13:45:07;;;;;;;2.83;1.93;;;;;;;;;;5009557;28;20197;-86
2021/05/13 13:48:12;;;;;;;4.80;2.80;;;;;;;;;;4999002;28;20221;-85
2021/05/13 13:51:16;;;;;;;3.07;2.40;;;;;;;;;;4987705;28;20197;-86
2021/05/13 13:54:21;;;;;;;5.43;2.77;;;;;;;;;;4976591;28;20193;-86
2021/05/13 13:57:25;;;;;;;7.13;2.83;;;;;;;;;;4991559;28;20217;-86
2021/05/13 14:00:30;;;;;;;2.60;2.20;;;;;;;;;;4969496;28;20185;-86
2021/05/13 14:03:34;;;;;;;3.27;2.40;;;;;;;;;;4987058;28;20189;-86
2021/05/13 14:06:38;;;;;;;3.93;2.23;;;;;;;;;;4987503;28;20193;-86
2021/05/13 14:09:43;;;;;;;3.00;2.70;;;;;;;;;;4988417;28;20201;-86
2021/05/13 14:12:47;;;;;;;4.67;2.83;;;;;;;;;;4975856;28;20534;-85
2021/05/13 14:15:55;;;;;;;3.00;2.17;;;;;;;;;;4993130;28;20186;-86
2021/05/13 14:18:59;;;;;;;5.33;3.00;;;;;;;;;;4979637;28;20214;-86
2021/05/13 14:22:04;;;;;;;5.17;2.73;;;;;;;;;;4987305;28;20193;-86
2021/05/13 14:25:09;;;;;;;6.43;3.40;;;;;;;;;;4988966;28;20190;-85
2021/05/13 14:28:13;;;;;;;7.00;3.05;;;;;;;;;;4970340;28;20230;-86
2021/05/13 14:31:18;;;;;;;12.73;3.10;;;;;;;;;;4980615;28;20264;-85
2021/05/13 14:34:22;;;;;;;6.50;2.90;;;;;;;;;;4988767;28;20651;-86
2021/05/13 14:37:27;;;;;;;4.90;3.10;;;;;;;;;;4986347;28;20213;-85
2021/05/13 14:40:32;;;;;;;5.23;3.10;;;;;;;;;;5000682;28;20185;-84
2021/05/13 14:43:36;;;;;;;6.60;3.73;;;;;;;;;;4990680;28;20194;-85
2021/05/13 14:46:40;;;;;;;4.00;2.70;;;;;;;;;;4980514;28;20190;-84
2021/05/13 14:49:44;;;;;;;5.27;2.60;;;;;;;;;;4980750;28;20229;-85
2021/05/13 14:52:49;;;;;;;4.00;2.60;;;;;;;;;;4980131;28;20178;-85
2021/05/13 14:55:53;;;;;;;5.23;4.73;;;;;;;;;;4987285;28;20200;-85
2021/05/13 14:58:57;;;;;;;3.60;3.30;;;;;;;;;;4957594;28;20317;-85
2021/05/13 15:02:08;;;;;;;2.97;2.33;;;;;;;;;;4968846;28;20182;-85
2021/05/13 15:05:13;;;;;;;3.97;2.63;;;;;;;;;;4973835;28;20736;-85
2021/05/13 15:08:18;;;;;;;1.67;1.50;;;;;;;;;;4980263;28;20220;-85
2021/05/13 15:11:22;;;;;;;2.50;1.70;;;;;;;;;;4991488;28;20197;-85
2021/05/13 15:14:27;;;;;;;1.83;1.40;;;;;;;;;;4991778;28;20541;-85
2021/05/13 15:17:32;;;;;;;2.60;1.60;;;;;;;;;;5003101;28;20232;-86
2021/05/13 15:20:36;;;;;;;2.03;1.30;;;;;;;;;;4980552;28;20197;-86
2021/05/13 15:23:40;;;;;;;1.60;1.20;;;;;;;;;;4991795;28;20197;-86
2021/05/13 15:26:44;;;;;;;2.53;1.30;;;;;;;;;;4991776;28;20205;-85
2021/05/13 15:29:48;;;;;;;1.50;1.30;;;;;;;;;;4991096;28;20205;-86
2021/05/13 15:32:53;;;;;;;1.53;1.23;;;;;;;;;;5013246;28;20589;-85
2021/05/13 15:35:58;;;;;;;1.80;1.30;;;;;;;;;;5001593;28;20201;-85
2021/05/13 15:39:03;;;;;;;1.33;1.17;;;;;;;;;;4979014;28;20225;-85
2021/05/13 15:42:08;;;;;;;3.80;1.07;;;;;;;;;;4979283;28;20177;-85
2021/05/13 15:45:12;;;;;;;1.93;1.10;;;;;;;;;;4989933;28;20185;-85
2021/05/13 15:48:20;;;;;;;1.37;1.23;;;;;;;;;;5001672;28;20209;-85
2021/05/13 15:51:24;;;;;;;2.73;1.10;;;;;;;;;;5013407;28;21011;-85
2021/05/13 15:54:28;;;;;;;1.73;0.90;;;;;;;;;;4987389;28;20193;-85
2021/05/13 15:57:33;;;;;;;2.90;1.20;;;;;;;;;;4979078;28;20553;-85
2021/05/13 16:00:37;;;;;;;1.17;0.93;;;;;;;;;;5001449;28;20182;-85
2021/05/13 16:03:42;;;;;;;1.83;1.20;;;;;;;;;;4978957;28;20660;-85
2021/05/13 16:06:51;;;;;;;2.17;1.20;;;;;;;;;;4981656;28;20182;-85
2021/05/13 16:09:56;;;;;;;2.30;1.40;;;;;;;;;;4981125;28;20703;-85
2021/05/13 16:13:13;;;;;;;2.40;1.40;;;;;;;;;;4959579;28;20206;-85
2021/05/13 16:16:18;;;;;;;1.83;0.87;;;;;;;;;;4970573;28;20203;-85
2021/05/13 16:19:22;;;;;;;2.50;1.00;;;;;;;;;;4986489;28;20177;-85
2021/05/13 16:22:26;;;;;;;6.30;2.53;;;;;;;;;;4990082;28;20533;-85
2021/05/13 16:25:31;;;;;;;14.97;7.10;;;;;;;;;;4979617;28;20193;-86
2021/05/13 16:28:36;;;;;;;11.30;6.20;;;;;;;;;;4979023;28;20252;-85
2021/05/13 16:31:40;;;;;;;7.90;6.07;;;;;;;;;;4978906;28;20193;-86
2021/05/13 16:34:45;;;;;;;4.27;2.90;;;;;;;;;;4982574;28;20189;-86
2021/05/13 16:37:49;;;;;;;2.07;1.60;;;;;;;;;;4981843;28;20712;-85
2021/05/13 16:40:54;;;;;;;1.60;1.50;;;;;;;;;;4990411;28;20522;-86
2021/05/13 16:43:58;;;;;;;2.80;2.20;;;;;;;;;;4992074;28;20205;-86
2021/05/13 16:47:03;;;;;;;4.57;4.10;;;;;;;;;;4992371;28;20197;-83
2021/05/13 16:50:10;;;;;;;3.00;2.63;;;;;;;;;;4991598;28;20217;-84
2021/05/13 16:53:14;;;;;;;3.30;2.80;;;;;;;;;;4972660;28;20190;-83
2021/05/13 16:56:18;;;;;;;4.87;2.80;;;;;;;;;;5011477;28;20554;-84
2021/05/13 16:59:23;;;;;;;2.87;2.40;;;;;;;;;;4996594;28;20198;-85
2021/05/13 17:02:31;;;;;;;3.07;2.77;;;;;;;;;;4995913;28;20185;-83
2021/05/13 17:05:35;;;;;;;6.07;4.03;;;;;;;;;;4979506;28;20181;-84
2021/05/13 17:08:41;;;;;;;7.13;5.03;;;;;;;;;;5001686;28;20221;-86
2021/05/13 17:11:45;;;;;;;6.67;3.73;;;;;;;;;;5001740;28;20530;-86
2021/05/13 17:14:50;;;;;;;5.83;4.37;;;;;;;;;;4998086;28;20208;-85
2021/05/13 17:17:55;;;;;;;3.87;3.40;;;;;;;;;;4989089;28;20216;-86
2021/05/13 17:21:00;;;;;;;2.90;2.60;;;;;;;;;;5002772;28;20190;-86
2021/05/13 17:24:05;;;;;;;3.93;2.47;;;;;;;;;;4988654;28;20197;-86
2021/05/13 17:27:09;;;;;;;5.97;3.77;;;;;;;;;;4996034;28;20570;-86
2021/05/13 17:30:15;;;;;;;6.30;5.20;;;;;;;;;;5012223;28;20209;-86
2021/05/13 17:33:19;;;;;;;4.90;4.40;;;;;;;;;;4985862;28;20675;-86
2021/05/13 17:36:23;;;;;;;5.10;3.10;;;;;;;;;;5000849;28;20209;-86
2021/05/13 17:39:27;;;;;;;5.13;3.57;;;;;;;;;;4985328;28;20193;-86
2021/05/13 17:42:32;;;;;;;5.23;3.73;;;;;;;;;;4977553;28;20557;-86
2021/05/13 17:45:36;;;;;;;3.73;3.43;;;;;;;;;;4989147;28;20190;-85
2021/05/13 17:48:40;;;;;;;3.93;3.53;;;;;;;;;;4988949;28;20495;-86
2021/05/13 17:51:44;;;;;;;5.67;3.50;;;;;;;;;;4985709;28;20216;-86
2021/05/13 17:54:49;;;;;;;3.30;3.00;;;;;;;;;;4970459;28;20213;-85
2021/05/13 17:57:54;;;;;;;5.30;3.33;;;;;;;;;;4987580;28;20209;-86
2021/05/13 18:00:58;;;;;;;5.10;3.27;;;;;;;;;;4999436;28;20193;-87
2021/05/13 18:04:04;;;;;;;5.70;2.83;;;;;;;;;;4974838;28;20206;-87
2021/05/13 18:07:09;;;;;;;3.87;3.40;;;;;;;;;;4988644;28;20209;-87
2021/05/13 18:10:14;;;;;;;3.70;3.40;;;;;;;;;;4988420;28;20208;-87
2021/05/13 18:13:20;;;;;;;3.47;3.17;;;;;;;;;;5000583;28;20189;-87
2021/05/13 18:16:24;;;;;;;4.80;3.90;;;;;;;;;;4988058;28;20185;-87
2021/05/13 18:19:29;;;;;;;4.63;3.60;;;;;;;;;;4988147;28;20182;-87
2021/05/13 18:22:39;;;;;;;6.53;4.43;;;;;;;;;;4999075;28;20181;-87
2021/05/13 18:25:43;;;;;;;4.87;4.33;;;;;;;;;;4987993;28;20193;-87
2021/05/13 18:28:48;;;;;;;7.30;6.20;;;;;;;;;;4987470;28;20233;-87